createdAt,value
2023-04-03T00:00:52.857Z,95.78
2023-04-03T00:01:33.967Z,95.95
2023-04-03T00:02:14.140Z,95.53
2023-04-03T00:02:54.073Z,95.66
2023-04-03T00:03:34.117Z,95.63
2023-04-03T00:04:13.973Z,95.98
2023-04-03T00:04:54.057Z,95.97
2023-04-03T00:05:34.953Z,95.71
2023-04-03T00:06:16.114Z,95.38
2023-04-03T00:06:56.964Z,96.15
2023-04-03T00:07:37.031Z,96.74
2023-04-03T00:08:18.028Z,96.00
2023-04-03T00:08:59.040Z,96.32
2023-04-03T00:09:46.945Z,96.87
2023-04-03T00:10:20.890Z,96.21
2023-04-03T00:11:07.938Z,96.99
2023-04-03T00:11:41.736Z,96.78
2023-04-03T00:12:28.966Z,96.58
2023-04-03T00:13:06.421Z,96.09
2023-04-03T00:13:47.979Z,96.57
2023-04-03T00:14:22.049Z,96.97
2023-04-03T00:14:55.805Z,96.89
2023-04-03T00:15:36.943Z,96.27
2023-04-03T00:16:11.317Z,96.17
2023-04-03T00:16:45.792Z,96.52
2023-04-03T00:17:26.975Z,96.45
2023-04-03T00:18:01.127Z,96.62
2023-04-03T00:18:34.754Z,96.47
2023-04-03T00:19:16.409Z,96.53
2023-04-03T00:19:50.036Z,96.12
2023-04-03T00:20:23.820Z,96.00
2023-04-03T00:21:04.973Z,96.23
2023-04-03T00:21:39.012Z,96.32
2023-04-03T00:22:12.692Z,96.53
2023-04-03T00:22:52.924Z,96.43
2023-04-03T00:23:27.098Z,96.17
2023-04-03T00:24:00.895Z,96.41
2023-04-03T00:24:40.960Z,96.96
2023-04-03T00:25:16.028Z,96.62
2023-04-03T00:25:49.676Z,96.88
2023-04-03T00:26:29.939Z,97.04
2023-04-03T00:27:04.033Z,96.72
2023-04-03T00:27:39.212Z,96.85
2023-04-03T00:28:19.942Z,96.76
2023-04-03T00:28:54.059Z,96.75
2023-04-03T00:29:28.701Z,97.07
2023-04-03T00:30:09.934Z,97.41
2023-04-03T00:30:44.079Z,96.79
2023-04-03T00:31:18.546Z,96.82
2023-04-03T00:31:58.913Z,96.81
2023-04-03T00:32:33.203Z,97.11
2023-04-03T00:33:07.145Z,97.47
2023-04-03T00:33:47.911Z,97.46
2023-04-03T00:34:22.161Z,97.10
2023-04-03T00:34:55.806Z,96.70
2023-04-03T00:35:37.005Z,97.28
2023-04-03T00:36:18.080Z,98.04
2023-04-03T00:36:52.537Z,98.00
2023-04-03T00:37:32.919Z,97.61
2023-04-03T00:38:07.317Z,97.42
2023-04-03T00:38:41.721Z,98.42
2023-04-03T00:39:22.919Z,98.81
2023-04-03T00:39:57.059Z,99.05
2023-04-03T00:40:45.931Z,98.07
2023-04-03T00:41:26.547Z,98.05
2023-04-03T00:42:06.906Z,98.25
2023-04-03T00:42:49.041Z,98.53
2023-04-03T00:43:31.903Z,99.06
2023-04-03T00:44:51.053Z,98.82
2023-04-03T00:45:42.930Z,99.37
2023-04-03T00:46:23.973Z,99.17
2023-04-03T00:46:58.048Z,99.45
2023-04-03T00:47:32.441Z,98.71
2023-04-03T00:48:17.924Z,98.92
2023-04-03T00:48:54.975Z,98.53
2023-04-03T00:49:29.235Z,98.83
2023-04-03T00:50:09.875Z,99.19
2023-04-03T00:50:47.037Z,99.34
2023-04-03T00:51:34.948Z,99.23
2023-04-03T00:52:21.196Z,98.12
2023-04-03T00:53:01.901Z,98.74
2023-04-03T00:53:48.076Z,98.55
2023-04-03T00:54:29.878Z,98.51
2023-04-03T00:55:15.257Z,97.93
2023-04-03T00:55:56.885Z,98.42
2023-04-03T00:56:44.947Z,99.45
2023-04-03T00:57:19.417Z,98.87
2023-04-03T00:58:07.945Z,98.16
2023-04-03T00:59:08.880Z,98.62
2023-04-03T01:00:08.898Z,98.31
2023-04-03T01:00:49.964Z,99.07
2023-04-03T01:01:40.936Z,98.34
2023-04-03T01:02:29.021Z,98.63
2023-04-03T01:03:03.105Z,98.91
2023-04-03T01:03:49.913Z,98.32
2023-04-03T01:04:42.194Z,99.19
2023-04-03T01:05:29.902Z,99.97
2023-04-03T01:06:04.017Z,100.00
2023-04-03T01:06:50.896Z,99.97
2023-04-03T01:07:38.974Z,99.87
2023-04-03T01:08:32.891Z,99.78
2023-04-03T01:09:26.893Z,100.00
2023-04-03T01:10:24.914Z,98.85
2023-04-03T01:11:18.914Z,98.51
2023-04-03T01:12:46.657Z,99.10
2023-04-03T01:13:45.914Z,98.68
2023-04-03T01:14:39.891Z,98.57
2023-04-03T01:15:42.887Z,98.91
2023-04-03T01:16:38.904Z,99.74
2023-04-03T01:17:53.955Z,99.72
2023-04-03T01:18:51.883Z,98.87
2023-04-03T01:19:46.906Z,98.82
2023-04-03T01:20:46.889Z,99.11
2023-04-03T01:22:06.877Z,99.71
2023-04-03T01:23:15.900Z,99.17
2023-04-03T01:24:23.907Z,99.79
2023-04-03T01:25:17.874Z,99.82
2023-04-03T01:26:12.864Z,99.58
2023-04-03T01:27:06.901Z,100.00
2023-04-03T01:28:00.884Z,100.00
2023-04-03T01:28:42.923Z,100.00
2023-04-03T01:29:22.973Z,100.00
2023-04-03T01:30:02.868Z,100.00
2023-04-03T01:31:11.249Z,100.00
2023-04-03T01:31:57.942Z,100.00
2023-04-03T01:32:37.979Z,100.00
2023-04-03T01:33:17.852Z,100.00
2023-04-03T01:33:58.882Z,100.00
2023-04-03T01:34:35.009Z,100.00
2023-04-03T01:35:22.838Z,100.00
2023-04-03T01:35:56.973Z,100.00
2023-04-03T01:36:43.856Z,100.00
2023-04-03T01:37:18.197Z,100.00
2023-04-03T01:38:04.880Z,100.00
2023-04-03T01:38:39.151Z,100.00
2023-04-03T01:39:19.877Z,100.00
2023-04-03T01:39:59.936Z,100.00
2023-04-03T01:40:40.847Z,100.00
2023-04-03T01:41:22.053Z,100.00
2023-04-03T01:42:02.841Z,100.00
2023-04-03T01:42:42.937Z,100.00
2023-04-03T01:43:22.852Z,100.00
2023-04-03T01:44:02.957Z,100.00
2023-04-03T01:44:42.908Z,100.00
2023-04-03T01:45:22.989Z,100.00
2023-04-03T01:46:02.909Z,100.00
2023-04-03T01:46:44.038Z,100.00
2023-04-03T01:47:24.864Z,100.00
2023-04-03T01:48:04.931Z,100.00
2023-04-03T01:48:45.844Z,100.00
2023-04-03T01:49:25.948Z,100.00
2023-04-03T01:50:05.870Z,100.00
2023-04-03T01:50:46.004Z,100.00
2023-04-03T01:51:26.888Z,100.00
2023-04-03T01:52:06.916Z,100.00
2023-04-03T01:52:47.841Z,100.00
2023-04-03T01:53:27.967Z,100.00
2023-04-03T01:54:08.879Z,100.00
2023-04-03T01:54:48.914Z,100.00
2023-04-03T01:55:29.846Z,100.00
2023-04-03T01:56:10.942Z,100.00
2023-04-03T01:56:51.933Z,100.00
2023-04-03T01:57:32.985Z,100.00
2023-04-03T01:58:12.831Z,100.00
2023-04-03T01:58:53.019Z,100.00
2023-04-03T01:59:33.915Z,100.00
2023-04-03T02:00:14.949Z,100.00
2023-04-03T02:00:55.883Z,100.00
2023-04-03T02:01:36.058Z,100.00
2023-04-03T02:03:18.834Z,100.00
2023-04-03T02:03:53.026Z,100.00
2023-04-03T02:04:40.829Z,100.00
2023-04-03T02:05:14.963Z,100.00
2023-04-03T02:06:01.865Z,100.00
2023-04-03T02:06:35.975Z,100.00
2023-04-03T02:07:22.818Z,100.00
2023-04-03T02:07:57.327Z,100.00
2023-04-03T02:08:43.817Z,100.00
2023-04-03T02:09:17.997Z,100.00
2023-04-03T02:10:04.864Z,100.00
2023-04-03T02:10:39.065Z,100.00
2023-04-03T02:11:25.838Z,100.00
2023-04-03T02:12:01.105Z,100.00
2023-04-03T02:12:48.838Z,100.00
2023-04-03T02:13:23.951Z,100.00
2023-04-03T02:14:11.822Z,100.00
2023-04-03T02:14:46.310Z,100.00
2023-04-03T02:15:33.828Z,100.00
2023-04-03T02:16:14.974Z,100.00
2023-04-03T02:16:55.985Z,100.00
2023-04-03T02:17:36.024Z,100.00
2023-04-03T02:18:16.864Z,100.00
2023-04-03T02:18:57.041Z,100.00
2023-04-03T02:19:37.819Z,100.00
2023-04-03T02:20:18.972Z,100.00
2023-04-03T02:20:58.780Z,100.00
2023-04-03T02:21:38.929Z,100.00
2023-04-03T02:22:18.807Z,100.00
2023-04-03T02:22:58.949Z,100.00
2023-04-03T02:23:39.798Z,100.00
2023-04-03T02:24:19.908Z,100.00
2023-04-03T02:25:00.836Z,100.00
2023-04-03T02:25:41.910Z,100.00
2023-04-03T02:26:23.799Z,100.00
2023-04-03T02:27:04.947Z,100.00
2023-04-03T02:27:45.814Z,100.00
2023-04-03T02:28:25.866Z,100.00
2023-04-03T02:29:05.791Z,100.00
2023-04-03T02:29:45.901Z,100.00
2023-04-03T02:30:26.813Z,100.00
2023-04-03T02:31:07.589Z,100.00
2023-04-03T02:31:48.801Z,100.00
2023-04-03T02:32:29.033Z,100.00
2023-04-03T02:33:08.800Z,100.00
2023-04-03T02:33:48.931Z,100.00
2023-04-03T02:34:28.813Z,100.00
2023-04-03T02:35:08.961Z,100.00
2023-04-03T02:35:49.948Z,100.00
2023-04-03T02:36:31.797Z,100.00
2023-04-03T02:37:13.814Z,100.00
2023-04-03T02:37:53.930Z,100.00
2023-04-03T02:38:34.820Z,100.00
2023-04-03T02:39:14.967Z,100.00
2023-04-03T02:39:55.770Z,100.00
2023-04-03T02:40:36.075Z,100.00
2023-04-03T02:41:18.787Z,100.00
2023-04-03T02:41:58.866Z,100.00
2023-04-03T02:42:39.790Z,100.00
2023-04-03T02:43:19.905Z,100.00
2023-04-03T02:44:00.793Z,100.00
2023-04-03T02:44:41.218Z,100.00
2023-04-03T02:45:21.774Z,100.00
2023-04-03T02:46:02.015Z,100.00
2023-04-03T02:46:42.764Z,100.00
2023-04-03T02:47:22.900Z,100.00
2023-04-03T02:48:03.835Z,100.00
2023-04-03T02:48:44.897Z,100.00
2023-04-03T02:49:24.797Z,100.00
2023-04-03T02:50:04.988Z,100.00
2023-04-03T02:50:44.809Z,100.00
2023-04-03T02:51:24.946Z,100.00
2023-04-03T02:52:05.786Z,100.00
2023-04-03T02:52:45.842Z,100.00
2023-04-03T02:53:26.764Z,100.00
2023-04-03T02:54:06.875Z,100.00
2023-04-03T02:54:47.788Z,100.00
2023-04-03T02:55:27.876Z,100.00
2023-04-03T02:56:08.833Z,100.00
2023-04-03T02:56:48.985Z,100.00
2023-04-03T02:57:29.846Z,100.00
2023-04-03T02:58:09.935Z,100.00
2023-04-03T02:58:50.750Z,100.00
2023-04-03T02:59:31.247Z,100.00
2023-04-03T03:00:12.838Z,100.00
2023-04-03T03:00:52.906Z,100.00
2023-04-03T03:01:35.761Z,100.00
2023-04-03T03:02:16.881Z,100.00
2023-04-03T03:02:56.837Z,100.00
2023-04-03T03:03:36.912Z,100.00
2023-04-03T03:04:17.801Z,100.00
2023-04-03T03:04:58.082Z,100.00
2023-04-03T03:05:39.789Z,100.00
2023-04-03T03:06:22.844Z,100.00
2023-04-03T03:07:02.751Z,100.00
2023-04-03T03:07:42.916Z,100.00
2023-04-03T03:08:23.776Z,100.00
2023-04-03T03:09:04.575Z,100.00
2023-04-03T03:09:44.753Z,100.00
2023-04-03T03:10:24.881Z,100.00
2023-04-03T03:11:05.822Z,100.00
2023-04-03T03:11:46.895Z,100.00
2023-04-03T03:12:28.749Z,100.00
2023-04-03T03:13:08.936Z,100.00
2023-04-03T03:13:48.774Z,100.00
2023-04-03T03:14:28.834Z,100.00
2023-04-03T03:15:08.801Z,100.00
2023-04-03T03:15:48.936Z,100.00
2023-04-03T03:16:29.858Z,100.00
2023-04-03T03:17:09.864Z,100.00
2023-04-03T03:17:50.856Z,100.00
2023-04-03T03:18:31.465Z,100.00
2023-04-03T03:19:11.726Z,100.00
2023-04-03T03:19:51.878Z,100.00
2023-04-03T03:20:32.756Z,100.00
2023-04-03T03:21:12.819Z,100.00
2023-04-03T03:21:52.836Z,100.00
2023-04-03T03:22:33.868Z,100.00
2023-04-03T03:23:13.752Z,100.00
2023-04-03T03:23:53.891Z,100.00
2023-04-03T03:24:34.760Z,100.00
2023-04-03T03:25:15.972Z,100.00
2023-04-03T03:25:56.769Z,100.00
2023-04-03T03:26:36.888Z,100.00
2023-04-03T03:27:16.756Z,100.00
2023-04-03T03:27:56.836Z,100.00
2023-04-03T03:28:37.905Z,100.00
2023-04-03T03:29:17.923Z,100.00
2023-04-03T03:29:58.729Z,100.00
2023-04-03T03:30:38.816Z,100.00
2023-04-03T03:31:19.819Z,100.00
2023-04-03T03:31:59.793Z,100.00
2023-04-03T03:32:40.839Z,100.00
2023-04-03T03:33:20.883Z,100.00
2023-04-03T03:34:00.731Z,100.00
2023-04-03T03:34:40.910Z,100.00
2023-04-03T03:35:20.768Z,100.00
2023-04-03T03:36:01.860Z,100.00
2023-04-03T03:36:42.740Z,100.00
2023-04-03T03:37:22.852Z,100.00
2023-04-03T03:38:02.746Z,100.00
2023-04-03T03:38:42.879Z,100.00
2023-04-03T03:39:22.736Z,100.00
2023-04-03T03:40:03.541Z,100.00
2023-04-03T03:40:44.702Z,100.00
2023-04-03T03:41:24.862Z,100.00
2023-04-03T03:42:04.768Z,100.00
2023-04-03T03:42:44.860Z,100.00
2023-04-03T03:43:25.750Z,100.00
2023-04-03T03:44:05.917Z,100.00
2023-04-03T03:44:47.762Z,100.00
2023-04-03T03:45:27.801Z,100.00
2023-04-03T03:46:07.712Z,100.00
2023-04-03T03:46:47.858Z,100.00
2023-04-03T03:47:27.748Z,100.00
2023-04-03T03:48:08.824Z,100.00
2023-04-03T03:48:49.712Z,100.00
2023-04-03T03:49:30.853Z,100.00
2023-04-03T03:50:11.696Z,100.00
2023-04-03T03:50:51.885Z,100.00
2023-04-03T03:51:32.717Z,100.00
2023-04-03T03:52:12.859Z,100.00
2023-04-03T03:52:53.685Z,100.00
2023-04-03T03:53:33.802Z,100.00
2023-04-03T03:54:14.806Z,100.00
2023-04-03T03:54:54.885Z,100.00
2023-04-03T03:55:34.985Z,100.00
2023-04-03T03:56:16.039Z,100.00
2023-04-03T03:56:56.770Z,100.00
2023-04-03T03:57:36.825Z,100.00
2023-04-03T03:58:17.702Z,100.00
2023-04-03T03:58:57.799Z,100.00
2023-04-03T03:59:37.744Z,100.00
2023-04-03T04:00:18.805Z,100.00
2023-04-03T04:00:59.745Z,100.00
2023-04-03T04:01:40.969Z,100.00
2023-04-03T04:02:20.765Z,100.00
2023-04-03T04:03:01.780Z,100.00
2023-04-03T04:03:42.911Z,100.00
2023-04-03T04:04:22.998Z,100.00
2023-04-03T04:05:03.706Z,100.00
2023-04-03T04:05:43.749Z,100.00
2023-04-03T04:06:24.699Z,100.00
2023-04-03T04:07:04.860Z,100.00
2023-04-03T04:07:44.717Z,100.00
2023-04-03T04:08:24.780Z,100.00
2023-04-03T04:09:05.722Z,100.00
2023-04-03T04:09:46.056Z,100.00
2023-04-03T04:10:25.805Z,100.00
2023-04-03T04:11:05.794Z,100.00
2023-04-03T04:11:47.672Z,100.00
2023-04-03T04:12:27.803Z,100.00
2023-04-03T04:13:08.709Z,100.00
2023-04-03T04:13:48.792Z,100.00
2023-04-03T04:14:28.715Z,100.00
2023-04-03T04:15:09.808Z,100.00
2023-04-03T04:15:50.713Z,100.00
2023-04-03T04:16:30.870Z,100.00
2023-04-03T04:17:11.688Z,100.00
2023-04-03T04:17:51.926Z,100.00
2023-04-03T04:18:32.653Z,100.00
2023-04-03T04:19:12.800Z,100.00
2023-04-03T04:19:53.722Z,100.00
2023-04-03T04:20:33.856Z,100.00
2023-04-03T04:21:14.732Z,100.00
2023-04-03T04:21:54.789Z,100.00
2023-04-03T04:22:34.679Z,100.00
2023-04-03T04:23:15.874Z,100.00
2023-04-03T04:23:55.690Z,100.00
2023-04-03T04:24:37.335Z,100.00
2023-04-03T04:25:19.719Z,100.00
2023-04-03T04:25:59.811Z,100.00
2023-04-03T04:26:39.840Z,100.00
2023-04-03T04:27:19.862Z,100.00
2023-04-03T04:27:59.704Z,100.00
2023-04-03T04:28:39.843Z,100.00
2023-04-03T04:29:20.738Z,100.00
2023-04-03T04:30:00.901Z,100.00
2023-04-03T04:30:40.717Z,100.00
2023-04-03T04:31:20.886Z,100.00
2023-04-03T04:32:00.667Z,100.00
2023-04-03T04:32:41.234Z,100.00
2023-04-03T04:33:22.683Z,100.00
2023-04-03T04:34:03.801Z,100.00
2023-04-03T04:34:44.724Z,100.00
2023-04-03T04:35:24.837Z,100.00
2023-04-03T04:36:04.755Z,100.00
2023-04-03T04:36:44.998Z,100.00
2023-04-03T04:37:25.659Z,100.00
2023-04-03T04:38:06.370Z,100.00
2023-04-03T04:38:47.654Z,100.00
2023-04-03T04:39:27.876Z,100.00
2023-04-03T04:40:08.709Z,100.00
2023-04-03T04:40:49.845Z,100.00
2023-04-03T04:41:31.682Z,100.00
2023-04-03T04:42:14.641Z,100.00
2023-04-03T04:42:57.846Z,100.00
2023-04-03T04:43:37.819Z,100.00
2023-04-03T04:44:19.662Z,100.00
2023-04-03T04:44:59.829Z,100.00
2023-04-03T04:45:40.658Z,100.00
2023-04-03T04:46:21.166Z,100.00
2023-04-03T04:47:02.678Z,100.00
2023-04-03T04:47:42.909Z,100.00
2023-04-03T04:48:23.688Z,100.00
2023-04-03T04:49:03.787Z,100.00
2023-04-03T04:49:44.669Z,100.00
2023-04-03T04:50:24.772Z,100.00
2023-04-03T04:51:04.662Z,100.00
2023-04-03T04:51:52.077Z,100.00
2023-04-03T04:52:32.680Z,100.00
2023-04-03T04:53:12.855Z,100.00
2023-04-03T04:53:55.938Z,100.00
2023-04-03T04:54:37.235Z,100.00
2023-04-03T04:55:19.103Z,100.00
2023-04-03T04:56:01.307Z,100.00
2023-04-03T04:56:42.814Z,100.00
2023-04-03T04:57:22.870Z,100.00
2023-04-03T04:58:03.647Z,100.00
2023-04-03T04:58:43.740Z,100.00
2023-04-03T04:59:24.783Z,100.00
2023-04-03T05:00:04.839Z,100.00
2023-04-03T05:00:44.722Z,100.00
2023-04-03T05:01:25.990Z,100.00
2023-04-03T05:02:07.765Z,100.00
2023-04-03T05:02:47.814Z,100.00
2023-04-03T05:03:29.740Z,100.00
2023-04-03T05:04:10.771Z,100.00
2023-04-03T05:04:51.708Z,100.00
2023-04-03T05:05:31.861Z,100.00
2023-04-03T05:06:12.771Z,100.00
2023-04-03T05:06:53.809Z,100.00
2023-04-03T05:07:34.631Z,100.00
2023-04-03T05:08:14.739Z,100.00
2023-04-03T05:08:54.648Z,100.00
2023-04-03T05:09:34.848Z,100.00
2023-04-03T05:10:16.730Z,100.00
2023-04-03T05:10:56.776Z,100.00
2023-04-03T05:11:37.717Z,100.00
2023-04-03T05:12:17.800Z,100.00
2023-04-03T05:12:58.713Z,100.00
2023-04-03T05:13:39.708Z,100.00
2023-04-03T05:14:23.996Z,100.00
2023-04-03T05:15:04.882Z,100.00
2023-04-03T05:15:44.710Z,100.00
2023-04-03T05:16:24.938Z,100.00
2023-04-03T05:17:05.647Z,100.00
2023-04-03T05:17:46.220Z,100.00
2023-04-03T05:18:27.816Z,100.00
2023-04-03T05:19:07.756Z,100.00
2023-04-03T05:19:47.662Z,100.00
2023-04-03T05:20:27.741Z,100.00
2023-04-03T05:21:07.671Z,100.00
2023-04-03T05:21:47.859Z,100.00
2023-04-03T05:22:28.668Z,100.00
2023-04-03T05:23:09.785Z,100.00
2023-04-03T05:23:49.625Z,100.00
2023-04-03T05:24:29.746Z,100.00
2023-04-03T05:25:10.629Z,100.00
2023-04-03T05:25:51.107Z,100.00
2023-04-03T05:26:34.018Z,100.00
2023-04-03T05:27:17.862Z,100.00
2023-04-03T05:27:58.657Z,100.00
2023-04-03T05:28:38.651Z,100.00
2023-04-03T05:29:19.657Z,100.00
2023-04-03T05:30:01.039Z,100.00
2023-04-03T05:30:41.603Z,100.00
2023-04-03T05:31:21.854Z,100.00
2023-04-03T05:32:03.811Z,100.00
2023-04-03T05:32:43.891Z,100.00
2023-04-03T05:33:23.658Z,100.00
2023-04-03T05:34:03.710Z,100.00
2023-04-03T05:34:44.610Z,100.00
2023-04-03T05:35:24.773Z,100.00
2023-04-03T05:36:11.692Z,100.00
2023-04-03T05:36:52.676Z,100.00
2023-04-03T05:37:33.600Z,100.00
2023-04-03T05:38:14.048Z,100.00
2023-04-03T05:38:55.637Z,100.00
2023-04-03T05:39:35.789Z,100.00
2023-04-03T05:40:18.578Z,100.00
2023-04-03T05:40:58.796Z,100.00
2023-04-03T05:41:39.601Z,100.00
2023-04-03T05:42:19.699Z,100.00
2023-04-03T05:43:00.789Z,100.00
2023-04-03T05:43:40.882Z,100.00
2023-04-03T05:44:20.684Z,100.00
2023-04-03T05:45:01.710Z,100.00
2023-04-03T05:45:43.656Z,100.00
2023-04-03T05:46:26.819Z,100.00
2023-04-03T05:47:07.664Z,100.00
2023-04-03T05:47:48.365Z,100.00
2023-04-03T05:48:30.637Z,100.00
2023-04-03T05:49:13.565Z,100.00
2023-04-03T05:49:54.597Z,100.00
2023-04-03T05:50:34.673Z,100.00
2023-04-03T05:51:21.583Z,100.00
2023-04-03T05:52:01.856Z,100.00
2023-04-03T05:52:45.639Z,100.00
2023-04-03T05:53:37.626Z,100.00
2023-04-03T05:54:43.668Z,100.00
2023-04-03T05:55:37.733Z,100.00
2023-04-03T05:56:31.716Z,100.00
2023-04-03T05:57:25.636Z,100.00
2023-04-03T05:58:19.645Z,100.00
2023-04-03T05:58:59.722Z,100.00
2023-04-03T05:59:40.908Z,100.00
2023-04-03T06:00:22.644Z,100.00
2023-04-03T06:01:02.751Z,100.00
2023-04-03T06:01:43.583Z,100.00
2023-04-03T06:02:28.824Z,100.00
2023-04-03T06:03:09.700Z,100.00
2023-04-03T06:03:49.846Z,100.00
2023-04-03T06:04:29.681Z,100.00
2023-04-03T06:05:12.536Z,100.00
2023-04-03T06:05:53.594Z,100.00
2023-04-03T06:07:06.593Z,100.00
2023-04-03T06:08:00.570Z,100.00
2023-04-03T06:08:54.623Z,100.00
2023-04-03T06:09:48.564Z,100.00
2023-04-03T06:10:42.575Z,100.00
2023-04-03T06:11:36.628Z,100.00
2023-04-03T06:12:30.606Z,100.00
2023-04-03T06:13:24.593Z,100.00
2023-04-03T06:14:18.551Z,100.00
2023-04-03T06:15:05.743Z,100.00
2023-04-03T06:15:41.296Z,100.00
2023-04-03T06:16:28.615Z,100.00
2023-04-03T06:17:02.838Z,100.00
2023-04-03T06:17:50.590Z,100.00
2023-04-03T06:18:25.103Z,100.00
2023-04-03T06:19:14.545Z,100.00
2023-04-03T06:19:48.646Z,100.00
2023-04-03T06:20:29.614Z,100.00
2023-04-03T06:21:09.656Z,100.00
2023-04-03T06:21:49.571Z,100.00
2023-04-03T06:22:31.092Z,100.00
2023-04-03T06:23:12.557Z,100.00
2023-04-03T06:23:52.952Z,100.00
2023-04-03T06:24:33.550Z,100.00
2023-04-03T06:25:27.564Z,100.00
2023-04-03T06:26:08.542Z,100.00
2023-04-03T06:26:50.787Z,100.00
2023-04-03T06:27:30.532Z,100.00
2023-04-03T06:28:11.176Z,100.00
2023-04-03T06:28:51.544Z,100.00
2023-04-03T06:29:31.733Z,100.00
2023-04-03T06:30:14.572Z,100.00
2023-04-03T06:30:54.707Z,100.00
2023-04-03T06:31:28.832Z,100.00
2023-04-03T06:32:15.583Z,100.00
2023-04-03T06:32:51.245Z,100.00
2023-04-03T06:33:38.530Z,100.00
2023-04-03T06:34:12.843Z,100.00
2023-04-03T06:35:14.541Z,100.00
2023-04-03T06:36:14.665Z,100.00
2023-04-03T06:37:08.546Z,100.00
2023-04-03T06:38:02.546Z,100.00
2023-04-03T06:38:56.582Z,100.00
2023-04-03T06:39:50.532Z,100.00
2023-04-03T06:40:44.849Z,100.00
2023-04-03T06:41:34.786Z,100.00
2023-04-03T06:42:09.618Z,100.00
2023-04-03T06:42:57.525Z,100.00
2023-04-03T06:43:34.979Z,100.00
2023-04-03T06:44:23.550Z,100.00
2023-04-03T06:44:57.652Z,100.00
2023-04-03T06:45:44.519Z,100.00
2023-04-03T06:46:27.732Z,100.00
2023-04-03T06:47:08.531Z,100.00
2023-04-03T06:47:48.649Z,100.00
2023-04-03T06:48:28.519Z,100.00
2023-04-03T06:49:08.743Z,100.00
2023-04-03T06:49:49.556Z,100.00
2023-04-03T06:50:29.701Z,100.00
2023-04-03T06:51:10.562Z,100.00
2023-04-03T06:52:04.533Z,99.99
2023-04-03T06:52:45.574Z,100.00
2023-04-03T06:53:26.626Z,100.00
2023-04-03T06:54:08.504Z,100.00
2023-04-03T06:54:48.642Z,100.00
2023-04-03T06:55:34.520Z,100.00
2023-04-03T06:56:15.900Z,100.00
2023-04-03T06:56:56.588Z,100.00
2023-04-03T06:57:37.826Z,100.00
2023-04-03T06:58:17.722Z,100.00
2023-04-03T06:58:58.699Z,100.00
2023-04-03T06:59:39.516Z,100.00
2023-04-03T07:00:21.007Z,100.00
2023-04-03T07:01:01.557Z,100.00
2023-04-03T07:01:41.914Z,100.00
2023-04-03T07:02:22.623Z,100.00
2023-04-03T07:03:02.704Z,99.79
2023-04-03T07:03:44.533Z,99.86
2023-04-03T07:04:24.818Z,99.26
2023-04-03T07:05:04.506Z,100.00
2023-04-03T07:05:45.865Z,100.00
2023-04-03T07:06:26.543Z,100.00
2023-04-03T07:07:06.890Z,100.00
2023-04-03T07:07:47.486Z,100.00
2023-04-03T07:08:27.583Z,99.49
2023-04-03T07:09:08.628Z,99.47
2023-04-03T07:09:49.047Z,99.00
2023-04-03T07:10:30.511Z,99.46
2023-04-03T07:11:11.597Z,99.07
2023-04-03T07:11:52.557Z,99.45
2023-04-03T07:12:32.670Z,99.27
2023-04-03T07:13:13.713Z,98.84
2023-04-03T07:13:53.620Z,99.22
2023-04-03T07:14:33.507Z,98.17
2023-04-03T07:15:15.526Z,98.15
2023-04-03T07:15:56.521Z,98.22
2023-04-03T07:16:36.833Z,98.46
2023-04-03T07:17:17.481Z,98.11
2023-04-03T07:17:57.814Z,97.19
2023-04-03T07:18:38.482Z,96.60
2023-04-03T07:19:19.500Z,97.70
2023-04-03T07:20:03.053Z,97.03
2023-04-03T07:20:43.625Z,96.84
2023-04-03T07:21:24.620Z,97.38
2023-04-03T07:22:04.595Z,97.03
2023-04-03T07:22:44.502Z,97.96
2023-04-03T07:23:25.629Z,97.37
2023-04-03T07:24:06.655Z,96.95
2023-04-03T07:24:47.647Z,97.46
2023-04-03T07:25:28.503Z,97.22
2023-04-03T07:26:09.016Z,95.72
2023-04-03T07:26:50.466Z,96.40
2023-04-03T07:27:30.583Z,95.89
2023-04-03T07:28:11.467Z,95.78
2023-04-03T07:28:51.807Z,95.39
2023-04-03T07:29:31.470Z,95.65
2023-04-03T07:30:12.651Z,94.50
2023-04-03T07:30:58.525Z,93.79
2023-04-03T07:31:39.709Z,94.01
2023-04-03T07:32:20.484Z,94.61
2023-04-03T07:33:00.733Z,93.61
2023-04-03T07:33:41.633Z,93.27
2023-04-03T07:34:21.620Z,92.97
2023-04-03T07:35:03.893Z,93.45
2023-04-03T07:35:45.574Z,92.94
2023-04-03T07:36:29.612Z,93.06
2023-04-03T07:37:11.055Z,94.16
2023-04-03T07:37:51.471Z,93.53
2023-04-03T07:38:31.647Z,93.04
2023-04-03T07:39:11.517Z,92.44
2023-04-03T07:39:52.542Z,92.61
2023-04-03T07:40:33.474Z,92.12
2023-04-03T07:41:14.562Z,93.25
2023-04-03T07:41:54.525Z,92.66
2023-04-03T07:42:34.604Z,92.41
2023-04-03T07:43:14.466Z,92.38
2023-04-03T07:43:55.844Z,92.38
2023-04-03T07:44:36.520Z,91.64
2023-04-03T07:45:18.343Z,90.88
2023-04-03T07:45:59.559Z,90.79
2023-04-03T07:46:39.786Z,91.72
2023-04-03T07:47:21.508Z,90.96
2023-04-03T07:48:01.755Z,90.98
2023-04-03T07:48:42.462Z,89.25
2023-04-03T07:49:24.176Z,88.29
2023-04-03T07:50:05.546Z,87.75
2023-04-03T07:50:48.558Z,87.74
2023-04-03T07:51:28.447Z,87.91
2023-04-03T07:52:09.986Z,87.87
2023-04-03T07:52:51.526Z,87.55
2023-04-03T07:53:31.749Z,87.40
2023-04-03T07:54:12.460Z,86.64
2023-04-03T07:54:52.831Z,87.18
2023-04-03T07:55:34.951Z,86.27
2023-04-03T07:56:16.615Z,85.50
2023-04-03T07:56:57.544Z,86.07
2023-04-03T07:57:38.477Z,86.03
2023-04-03T07:58:22.464Z,86.79
2023-04-03T07:59:02.722Z,86.72
2023-04-03T07:59:43.504Z,87.41
2023-04-03T08:00:24.585Z,86.28
2023-04-03T08:01:05.436Z,85.38
2023-04-03T08:01:45.574Z,85.60
2023-04-03T08:02:48.542Z,85.40
2023-04-03T08:03:42.707Z,84.34
2023-04-03T08:04:36.544Z,83.58
2023-04-03T08:05:34.460Z,84.04
2023-04-03T08:06:37.856Z,83.81
2023-04-03T08:07:40.425Z,83.97
2023-04-03T08:08:37.551Z,84.20
2023-04-03T08:09:18.464Z,82.84
2023-04-03T08:09:59.726Z,81.92
2023-04-03T08:10:40.438Z,83.06
2023-04-03T08:11:21.814Z,82.08
2023-04-03T08:12:02.425Z,82.23
2023-04-03T08:12:42.758Z,82.69
2023-04-03T08:13:23.428Z,82.97
2023-04-03T08:14:03.622Z,83.06
2023-04-03T08:14:43.456Z,83.43
2023-04-03T08:15:17.343Z,84.40
2023-04-03T08:16:06.423Z,84.17
2023-04-03T08:16:40.278Z,83.27
2023-04-03T08:17:28.464Z,82.52
2023-04-03T08:18:02.523Z,82.43
2023-04-03T08:18:49.420Z,82.26
2023-04-03T08:19:26.502Z,82.48
2023-04-03T08:20:07.459Z,82.66
2023-04-03T08:20:41.831Z,81.80
2023-04-03T08:21:16.735Z,80.75
2023-04-03T08:21:57.427Z,81.43
2023-04-03T08:22:31.673Z,82.85
2023-04-03T08:23:05.353Z,81.70
2023-04-03T08:23:49.549Z,81.21
2023-04-03T08:24:23.517Z,80.98
2023-04-03T08:24:59.277Z,80.47
2023-04-03T08:25:40.579Z,79.96
2023-04-03T08:26:21.272Z,79.99
2023-04-03T08:26:55.467Z,79.73
2023-04-03T08:27:36.416Z,79.81
2023-04-03T08:28:10.536Z,80.44
2023-04-03T08:28:45.343Z,80.31
2023-04-03T08:29:26.445Z,80.69
2023-04-03T08:30:00.865Z,80.47
2023-04-03T08:30:35.870Z,79.30
2023-04-03T08:31:21.541Z,79.78
2023-04-03T08:31:55.746Z,79.28
2023-04-03T08:32:30.421Z,78.51
2023-04-03T08:33:11.540Z,77.72
2023-04-03T08:33:46.521Z,78.28
2023-04-03T08:34:20.979Z,78.42
2023-04-03T08:35:02.430Z,78.51
2023-04-03T08:35:38.094Z,78.35
2023-04-03T08:36:32.527Z,77.79
2023-04-03T08:37:13.515Z,77.42
2023-04-03T08:37:53.396Z,77.35
2023-04-03T08:38:33.530Z,77.20
2023-04-03T08:39:14.399Z,76.91
2023-04-03T08:39:55.836Z,76.31
2023-04-03T08:40:36.405Z,75.74
2023-04-03T08:41:44.426Z,77.75
2023-04-03T08:42:50.163Z,77.02
2023-04-03T08:44:19.427Z,76.72
2023-04-03T08:45:07.301Z,75.41
2023-04-03T08:46:05.472Z,75.55
2023-04-03T08:47:10.471Z,75.06
2023-04-03T08:47:57.786Z,74.73
2023-04-03T08:48:46.454Z,75.12
2023-04-03T08:50:00.585Z,76.21
2023-04-03T08:50:53.095Z,76.67
2023-04-03T08:51:34.481Z,75.32
2023-04-03T08:52:45.600Z,76.73
2023-04-03T08:53:29.614Z,74.37